Time;durP1;ratioP1;P1;durP2;ratioP2;P2;SDS_P1;SDS_P2;PMS_P1;PMS_P2;Temp;Humidity;BMP_temperature;BMP_pressure;BME280_temperature;BME280_humidity;BME280_pressure;Samples;Min_cycle;Max_cycle;Signal;HPM_P1;HPM_P2
2021/04/06 00:00:23;;;;;;;22.53;3.30;;;;;;;;;;5057864;28;37656;-76
2021/04/06 00:02:51;;;;;;;22.27;3.90;;;;;;;;;;5026084;28;37843;-76
2021/04/06 00:05:19;;;;;;;16.17;2.93;;;;;;;;;;5057524;28;36858;-76
2021/04/06 00:07:45;;;;;;;18.57;3.10;;;;;;;;;;5059086;28;37774;-76
2021/04/06 00:10:15;;;;;;;19.63;3.70;;;;;;;;;;5027342;28;38531;-76
2021/04/06 00:12:43;;;;;;;16.13;2.57;;;;;;;;;;5038553;28;37022;-76
2021/04/06 00:15:11;;;;;;;23.43;2.97;;;;;;;;;;5027742;28;37926;-76
2021/04/06 00:17:38;;;;;;;28.60;5.47;;;;;;;;;;5026419;28;38951;-76
2021/04/06 00:20:06;;;;;;;15.17;2.30;;;;;;;;;;5027038;28;38641;-76
2021/04/06 00:22:34;;;;;;;16.30;3.10;;;;;;;;;;5059909;28;38324;-76
2021/04/06 00:25:02;;;;;;;15.77;2.80;;;;;;;;;;5057552;28;36148;-75
2021/04/06 00:27:34;;;;;;;23.50;3.63;;;;;;;;;;5041548;28;47535;-76
2021/04/06 00:30:08;;;;;;;10.60;2.55;;;;;;;;;;5014816;28;39388;-76
2021/04/06 00:32:35;;;;;;;18.20;2.67;;;;;;;;;;5020856;28;48909;-76
2021/04/06 00:35:02;;;;;;;14.83;2.80;;;;;;;;;;5043122;28;35791;-76
2021/04/06 00:37:29;;;;;;;19.37;3.87;;;;;;;;;;5041936;28;47056;-76
2021/04/06 00:40:01;;;;;;;23.63;3.23;;;;;;;;;;5018790;28;39194;-76
2021/04/06 00:42:29;;;;;;;17.13;4.17;;;;;;;;;;5024159;28;48618;-75
2021/04/06 00:44:57;;;;;;;26.87;3.70;;;;;;;;;;5026434;28;37659;-76
2021/04/06 00:47:24;;;;;;;20.53;3.67;;;;;;;;;;5027218;28;39125;-75
2021/04/06 00:49:52;;;;;;;19.87;3.70;;;;;;;;;;5026797;28;39378;-76
2021/04/06 00:52:18;;;;;;;16.23;3.10;;;;;;;;;;5058618;28;37245;-76
2021/04/06 00:54:50;;;;;;;27.00;4.63;;;;;;;;;;5043624;28;35903;-76
2021/04/06 00:57:17;;;;;;;22.73;4.77;;;;;;;;;;5058254;28;38472;-75
2021/04/06 01:00:03;;;;;;;14.63;2.73;;;;;;;;;;5058621;28;37190;-75
2021/04/06 01:02:29;;;;;;;22.17;3.13;;;;;;;;;;5019183;28;48480;-76
2021/04/06 01:04:56;;;;;;;21.53;2.80;;;;;;;;;;5026511;28;36850;-75
2021/04/06 01:07:22;;;;;;;24.83;3.37;;;;;;;;;;5057262;28;38517;-75
2021/04/06 01:09:50;;;;;;;22.03;3.27;;;;;;;;;;5057817;28;37283;-76
2021/04/06 01:12:17;;;;;;;23.30;3.23;;;;;;;;;;5026489;28;38477;-76
2021/04/06 01:14:46;;;;;;;25.20;4.13;;;;;;;;;;5026354;28;37090;-76
2021/04/06 01:17:14;;;;;;;23.40;3.90;;;;;;;;;;5026180;28;37029;-75
2021/04/06 01:19:40;;;;;;;25.43;4.40;;;;;;;;;;5058947;28;37801;-75
2021/04/06 01:22:08;;;;;;;23.10;3.90;;;;;;;;;;5057295;28;38351;-76
2021/04/06 01:24:35;;;;;;;20.33;3.43;;;;;;;;;;5034100;28;36706;-76
2021/04/06 01:27:02;;;;;;;19.43;3.43;;;;;;;;;;5058389;28;39638;-76
2021/04/06 01:29:29;;;;;;;25.50;3.60;;;;;;;;;;5044653;28;47493;-75
2021/04/06 01:31:56;;;;;;;15.63;2.67;;;;;;;;;;5036790;28;36949;-75
2021/04/06 01:34:23;;;;;;;18.80;2.77;;;;;;;;;;5005585;28;36647;-75
2021/04/06 01:36:53;;;;;;;18.30;3.07;;;;;;;;;;5005558;28;38759;-76
2021/04/06 01:39:21;;;;;;;14.23;2.87;;;;;;;;;;5005474;28;39694;-76
2021/04/06 01:41:50;;;;;;;12.33;2.07;;;;;;;;;;5019107;28;39422;-76
2021/04/06 01:44:17;;;;;;;11.43;2.03;;;;;;;;;;5043553;28;36967;-75
2021/04/06 01:46:45;;;;;;;19.87;2.40;;;;;;;;;;5058383;28;39234;-75
2021/04/06 01:49:13;;;;;;;22.73;2.87;;;;;;;;;;5034722;28;39379;-76
2021/04/06 01:51:40;;;;;;;26.57;3.10;;;;;;;;;;5059188;28;40977;-75
2021/04/06 01:54:08;;;;;;;16.80;2.90;;;;;;;;;;5031924;28;35712;-76
2021/04/06 01:56:44;;;;;;;16.97;2.87;;;;;;;;;;5058311;28;37869;-75
2021/04/06 01:59:15;;;;;;;16.60;3.13;;;;;;;;;;5039991;28;37574;-75
2021/04/06 02:01:42;;;;;;;12.60;2.00;;;;;;;;;;5027274;28;38045;-75
2021/04/06 02:04:10;;;;;;;12.90;2.03;;;;;;;;;;5024693;28;36617;-75
2021/04/06 02:06:39;;;;;;;17.77;2.20;;;;;;;;;;5028193;28;37842;-75
2021/04/06 02:09:07;;;;;;;15.00;2.23;;;;;;;;;;5025697;28;39525;-75
2021/04/06 02:11:34;;;;;;;12.17;2.20;;;;;;;;;;5057785;28;37107;-76
2021/04/06 02:14:11;;;;;;;15.07;2.10;;;;;;;;;;5041246;28;35694;-75
2021/04/06 02:16:53;;;;;;;12.30;2.20;;;;;;;;;;5016705;28;48301;-76
2021/04/06 02:19:26;;;;;;;15.55;2.20;;;;;;;;;;5013256;28;39407;-75
2021/04/06 02:21:52;;;;;;;;;;;;;;;;;;5042888;28;38605;-76
2021/04/06 02:24:54;;;;;;;7.43;1.40;;;;;;;;;;5040893;28;37860;-77
2021/04/06 02:27:21;;;;;;;8.07;1.77;;;;;;;;;;5020532;28;37868;-75
2021/04/06 02:29:52;;;;;;;11.20;2.47;;;;;;;;;;5027287;28;37435;-76
2021/04/06 02:32:19;;;;;;;12.60;1.90;;;;;;;;;;5042452;28;37376;-77
2021/04/06 02:34:46;;;;;;;17.00;2.57;;;;;;;;;;5028790;28;37231;-78
2021/04/06 02:37:14;;;;;;;21.03;3.10;;;;;;;;;;5059592;28;37733;-76
2021/04/06 02:39:40;;;;;;;17.00;2.50;;;;;;;;;;5027263;28;39550;-76
2021/04/06 02:42:27;;;;;;;17.37;2.53;;;;;;;;;;5028554;28;39391;-75
2021/04/06 02:45:03;;;;;;;14.73;2.30;;;;;;;;;;5060829;28;36715;-76
2021/04/06 02:47:30;;;;;;;13.87;2.17;;;;;;;;;;5027482;28;48333;-76
2021/04/06 02:49:57;;;;;;;20.53;2.87;;;;;;;;;;5029676;28;38665;-76
2021/04/06 02:52:25;;;;;;;15.33;2.53;;;;;;;;;;5059994;28;37186;-76
2021/04/06 02:54:51;;;;;;;15.50;2.47;;;;;;;;;;5043891;28;38574;-76
2021/04/06 02:57:22;;;;;;;18.40;2.97;;;;;;;;;;5029299;28;39960;-76
2021/04/06 02:59:49;;;;;;;19.13;3.30;;;;;;;;;;5060717;28;37756;-76
2021/04/06 03:02:15;;;;;;;20.23;2.83;;;;;;;;;;5034396;28;38470;-75
2021/04/06 03:04:43;;;;;;;18.40;3.07;;;;;;;;;;5061831;28;36791;-77
2021/04/06 03:07:18;;;;;;;12.87;2.60;;;;;;;;;;5028450;28;39073;-76
2021/04/06 03:09:50;;;;;;;15.80;2.27;;;;;;;;;;5044734;28;37495;-77
2021/04/06 03:12:17;;;;;;;19.50;2.47;;;;;;;;;;5059465;28;37423;-78
2021/04/06 03:14:46;;;;;;;12.43;2.27;;;;;;;;;;5059891;28;36146;-75
2021/04/06 03:17:13;;;;;;;11.57;2.07;;;;;;;;;;5027159;28;40284;-76
2021/04/06 03:19:39;;;;;;;11.00;1.50;;;;;;;;;;5061056;28;39014;-75
2021/04/06 03:22:07;;;;;;;7.60;1.50;;;;;;;;;;5026677;28;38475;-78
2021/04/06 03:24:33;;;;;;;8.57;1.20;;;;;;;;;;5044506;28;37346;-77
2021/04/06 03:27:01;;;;;;;4.70;1.30;;;;;;;;;;5024044;28;39526;-76
2021/04/06 03:29:28;;;;;;;9.77;1.70;;;;;;;;;;5025836;28;47088;-77
2021/04/06 03:31:55;;;;;;;11.87;1.73;;;;;;;;;;5029145;28;38006;-78
2021/04/06 03:34:21;;;;;;;13.07;1.90;;;;;;;;;;5064412;28;36096;-77
2021/04/06 03:36:48;;;;;;;8.10;1.70;;;;;;;;;;5041521;28;39107;-78
2021/04/06 03:39:14;;;;;;;12.63;1.70;;;;;;;;;;5040302;28;39430;-78
2021/04/06 03:41:41;;;;;;;16.80;2.17;;;;;;;;;;5069472;28;36901;-78
2021/04/06 03:44:08;;;;;;;14.27;2.20;;;;;;;;;;5073370;28;39062;-78
2021/04/06 03:46:35;;;;;;;12.30;1.73;;;;;;;;;;5041970;28;38602;-78
2021/04/06 03:49:31;;;;;;;13.57;2.40;;;;;;;;;;5075060;28;37341;-78
2021/04/06 03:51:59;;;;;;;17.63;2.87;;;;;;;;;;5005805;28;49808;-78
2021/04/06 03:54:40;;;;;;;11.90;2.23;;;;;;;;;;5022140;28;37383;-75
2021/04/06 03:57:21;;;;;;;19.90;2.10;;;;;;;;;;5004885;28;40073;-75
2021/04/06 03:59:48;;;;;;;17.30;1.90;;;;;;;;;;5054460;28;37473;-75
2021/04/06 04:02:14;;;;;;;18.70;2.70;;;;;;;;;;5045900;28;36664;-76
2021/04/06 04:04:41;;;;;;;10.07;1.60;;;;;;;;;;5012067;28;36571;-76
2021/04/06 04:07:08;;;;;;;9.93;1.53;;;;;;;;;;5026586;28;38776;-76
2021/04/06 04:09:34;;;;;;;6.10;1.00;;;;;;;;;;5043152;28;38119;-76
2021/04/06 04:12:01;;;;;;;7.03;1.90;;;;;;;;;;5018008;28;38401;-78
2021/04/06 04:14:27;;;;;;;14.60;2.30;;;;;;;;;;5073256;28;46635;-78
2021/04/06 04:16:54;;;;;;;11.43;2.73;;;;;;;;;;5029536;28;39144;-78
2021/04/06 04:19:20;;;;;;;9.63;1.70;;;;;;;;;;5059947;28;38522;-78
2021/04/06 04:21:47;;;;;;;12.37;1.77;;;;;;;;;;5027925;28;40845;-78
2021/04/06 04:24:13;;;;;;;16.70;3.13;;;;;;;;;;5059530;28;36039;-75
2021/04/06 04:26:39;;;;;;;15.97;2.30;;;;;;;;;;5028183;28;39994;-75
2021/04/06 04:29:08;;;;;;;12.43;2.33;;;;;;;;;;5027306;28;38349;-76
2021/04/06 04:31:34;;;;;;;13.30;3.17;;;;;;;;;;5026279;28;37796;-75
2021/04/06 04:34:00;;;;;;;17.87;2.10;;;;;;;;;;5026989;28;37611;-77
2021/04/06 04:36:27;;;;;;;18.17;2.67;;;;;;;;;;5042564;28;38164;-75
2021/04/06 04:38:53;;;;;;;23.57;3.43;;;;;;;;;;5022196;28;38624;-74
2021/04/06 04:41:19;;;;;;;13.53;2.10;;;;;;;;;;5027706;28;38963;-75
2021/04/06 04:43:45;;;;;;;19.57;2.97;;;;;;;;;;5059766;28;37182;-76
2021/04/06 04:46:12;;;;;;;19.83;2.80;;;;;;;;;;5030393;28;37167;-75
2021/04/06 04:48:38;;;;;;;19.37;3.13;;;;;;;;;;5027516;28;38645;-76
2021/04/06 04:51:05;;;;;;;10.90;2.07;;;;;;;;;;5041546;28;38690;-76
2021/04/06 04:53:31;;;;;;;13.27;2.23;;;;;;;;;;5025064;28;36858;-75
2021/04/06 04:55:57;;;;;;;18.67;1.90;;;;;;;;;;5058839;28;38289;-75
2021/04/06 04:58:24;;;;;;;11.00;2.17;;;;;;;;;;5026590;28;38343;-76
2021/04/06 05:00:50;;;;;;;14.30;1.67;;;;;;;;;;5059204;28;37927;-75
2021/04/06 05:03:16;;;;;;;11.53;1.67;;;;;;;;;;5040640;28;35696;-76
2021/04/06 05:05:43;;;;;;;14.80;2.23;;;;;;;;;;5026047;28;38511;-78
2021/04/06 05:08:09;;;;;;;6.00;1.17;;;;;;;;;;5029809;28;38493;-76
2021/04/06 05:10:35;;;;;;;12.10;2.10;;;;;;;;;;5028287;28;38998;-78
2021/04/06 05:13:02;;;;;;;8.90;2.17;;;;;;;;;;5015260;28;35711;-76
2021/04/06 05:15:30;;;;;;;10.07;1.90;;;;;;;;;;5025164;28;48830;-76
2021/04/06 05:17:57;;;;;;;14.97;2.70;;;;;;;;;;5047293;28;38452;-76
2021/04/06 05:20:23;;;;;;;16.70;2.10;;;;;;;;;;5005652;28;38089;-78
2021/04/06 05:22:50;;;;;;;19.80;2.23;;;;;;;;;;5037710;28;35843;-78
2021/04/06 05:25:17;;;;;;;18.17;2.47;;;;;;;;;;5012186;28;39940;-78
2021/04/06 05:27:43;;;;;;;14.63;2.30;;;;;;;;;;5037164;28;37430;-78
2021/04/06 05:30:10;;;;;;;18.00;2.13;;;;;;;;;;5038548;28;38251;-79
2021/04/06 05:32:37;;;;;;;24.57;3.20;;;;;;;;;;5011004;28;37030;-76
2021/04/06 05:35:04;;;;;;;15.00;2.70;;;;;;;;;;5058621;28;38812;-77
2021/04/06 05:37:30;;;;;;;19.80;2.40;;;;;;;;;;5060510;28;38672;-77
2021/04/06 05:39:56;;;;;;;22.67;2.03;;;;;;;;;;5025179;28;38269;-78
2021/04/06 05:42:23;;;;;;;14.10;2.47;;;;;;;;;;5032153;28;36633;-77
2021/04/06 05:44:51;;;;;;;17.50;2.97;;;;;;;;;;5047031;28;38976;-75
2021/04/06 05:47:23;;;;;;;9.27;1.63;;;;;;;;;;5056451;28;40038;-79
2021/04/06 05:49:49;;;;;;;10.55;1.88;;;;;;;;;;5040301;28;37222;-78
2021/04/06 05:52:16;;;;;;;10.50;2.13;;;;;;;;;;5057859;28;35682;-78
2021/04/06 05:54:42;;;;;;;12.60;1.87;;;;;;;;;;5025336;28;39779;-78
2021/04/06 05:57:09;;;;;;;8.63;1.30;;;;;;;;;;5057225;28;37850;-78
2021/04/06 05:59:35;;;;;;;9.00;1.30;;;;;;;;;;5057154;28;38475;-78
2021/04/06 06:02:02;;;;;;;8.53;1.40;;;;;;;;;;5055066;28;35846;-78
2021/04/06 06:04:28;;;;;;;8.83;1.60;;;;;;;;;;5026495;28;40090;-78
2021/04/06 06:06:54;;;;;;;10.90;1.80;;;;;;;;;;5023923;28;38211;-78
2021/04/06 06:09:36;;;;;;;8.37;1.13;;;;;;;;;;5024904;28;38158;-78
2021/04/06 06:12:04;;;;;;;9.33;1.50;;;;;;;;;;5019217;28;35704;-77
2021/04/06 06:14:38;;;;;;;8.07;1.27;;;;;;;;;;5023334;28;38933;-78
2021/04/06 06:17:16;;;;;;;13.67;1.80;;;;;;;;;;5026493;28;37492;-79
2021/04/06 06:19:43;;;;;;;10.97;2.10;;;;;;;;;;5002219;28;37719;-79
2021/04/06 06:22:17;;;;;;;11.07;1.63;;;;;;;;;;5018069;28;35579;-79
2021/04/06 06:24:45;;;;;;;16.83;2.17;;;;;;;;;;5003592;28;38806;-78
2021/04/06 06:27:33;;;;;;;10.17;1.70;;;;;;;;;;5009466;28;38168;-76
2021/04/06 06:30:18;;;;;;;14.43;1.87;;;;;;;;;;5053585;28;36981;-76
2021/04/06 06:32:45;;;;;;;16.87;3.53;;;;;;;;;;5017539;28;48658;-75
2021/04/06 06:35:11;;;;;;;9.67;1.80;;;;;;;;;;5015913;28;39511;-76
2021/04/06 06:37:38;;;;;;;10.97;2.10;;;;;;;;;;5035554;28;37090;-76
2021/04/06 06:40:05;;;;;;;10.53;2.03;;;;;;;;;;5018992;28;38864;-79
2021/04/06 06:42:33;;;;;;;10.17;1.50;;;;;;;;;;5023834;28;36057;-77
2021/04/06 06:45:01;;;;;;;8.73;1.40;;;;;;;;;;5011357;28;39290;-75
2021/04/06 06:47:28;;;;;;;12.23;1.73;;;;;;;;;;5041180;28;37713;-75
2021/04/06 06:49:55;;;;;;;10.73;1.50;;;;;;;;;;5004049;28;38483;-75
2021/04/06 06:52:26;;;;;;;9.43;1.93;;;;;;;;;;5028581;28;35534;-79
2021/04/06 06:55:00;;;;;;;11.17;1.90;;;;;;;;;;5009864;28;39383;-77
2021/04/06 06:57:35;;;;;;;12.50;2.07;;;;;;;;;;5002262;28;38492;-76
2021/04/06 07:00:06;;;;;;;16.17;1.80;;;;;;;;;;5019438;28;38054;-77
2021/04/06 07:02:33;;;;;;;12.47;2.17;;;;;;;;;;5002081;28;37657;-77
2021/04/06 07:05:19;;;;;;;9.23;2.07;;;;;;;;;;5032522;28;38365;-78
2021/04/06 07:07:51;;;;;;;17.07;3.37;;;;;;;;;;5014531;28;48427;-79
2021/04/06 07:10:19;;;;;;;10.13;1.60;;;;;;;;;;5053507;28;38980;-75
2021/04/06 07:12:46;;;;;;;13.37;2.33;;;;;;;;;;5038193;28;35907;-76
2021/04/06 07:15:14;;;;;;;18.83;2.07;;;;;;;;;;5058265;28;38305;-77
2021/04/06 07:17:42;;;;;;;16.97;1.83;;;;;;;;;;5058324;28;37289;-78
2021/04/06 07:20:12;;;;;;;13.60;2.10;;;;;;;;;;5045654;28;37478;-74
2021/04/06 07:22:39;;;;;;;10.80;2.00;;;;;;;;;;5027314;28;37785;-74
2021/04/06 07:25:06;;;;;;;16.43;2.77;;;;;;;;;;5026800;28;38635;-73
2021/04/06 07:27:33;;;;;;;18.30;2.77;;;;;;;;;;5038684;28;38614;-73
2021/04/06 07:29:59;;;;;;;16.37;2.50;;;;;;;;;;5025993;28;39078;-74
2021/04/06 07:32:27;;;;;;;13.20;2.00;;;;;;;;;;5023185;28;36831;-79
2021/04/06 07:34:53;;;;;;;20.33;2.10;;;;;;;;;;5036620;28;38163;-78
2021/04/06 07:37:20;;;;;;;9.60;1.80;;;;;;;;;;5055362;28;38811;-76
2021/04/06 07:39:48;;;;;;;11.37;1.83;;;;;;;;;;5037186;28;38329;-76
2021/04/06 07:42:14;;;;;;;13.03;2.60;;;;;;;;;;5026569;28;37830;-76
2021/04/06 07:44:41;;;;;;;6.00;1.43;;;;;;;;;;5026947;28;38326;-75
2021/04/06 07:47:07;;;;;;;11.27;1.70;;;;;;;;;;5023999;28;38446;-76
2021/04/06 07:49:37;;;;;;;8.73;1.70;;;;;;;;;;5027234;28;39578;-76
2021/04/06 07:52:05;;;;;;;10.37;1.83;;;;;;;;;;5025931;28;37131;-76
2021/04/06 07:54:31;;;;;;;10.77;1.70;;;;;;;;;;5024840;28;38857;-76
2021/04/06 07:56:58;;;;;;;14.63;1.90;;;;;;;;;;5045703;28;36753;-77
2021/04/06 07:59:24;;;;;;;12.07;2.17;;;;;;;;;;5025437;28;38074;-75
2021/04/06 08:01:51;;;;;;;8.37;2.20;;;;;;;;;;5056308;28;35765;-74
2021/04/06 08:04:18;;;;;;;15.00;2.50;;;;;;;;;;5057936;28;37882;-76
2021/04/06 08:06:49;;;;;;;11.63;1.93;;;;;;;;;;5025715;28;39207;-74
2021/04/06 08:09:27;;;;;;;11.60;1.93;;;;;;;;;;5024977;28;38176;-75
2021/04/06 08:12:05;;;;;;;12.27;2.30;;;;;;;;;;5044019;28;36665;-78
2021/04/06 08:14:43;;;;;;;12.03;1.80;;;;;;;;;;5039218;28;47217;-78
2021/04/06 08:17:28;;;;;;;15.57;2.57;;;;;;;;;;5024316;28;40083;-78
2021/04/06 08:19:57;;;;;;;13.57;2.40;;;;;;;;;;5019225;28;39992;-76
2021/04/06 08:22:28;;;;;;;21.37;2.90;;;;;;;;;;5026286;28;37106;-76
2021/04/06 08:25:14;;;;;;;11.63;1.73;;;;;;;;;;5022242;28;39858;-75
2021/04/06 08:27:40;;;;;;;11.53;1.87;;;;;;;;;;5055847;28;48227;-75
2021/04/06 08:30:18;;;;;;;8.60;1.67;;;;;;;;;;5022577;28;39534;-75
2021/04/06 08:32:57;;;;;;;14.73;2.07;;;;;;;;;;5055708;28;35911;-75
2021/04/06 08:35:42;;;;;;;11.87;1.60;;;;;;;;;;5046492;28;38869;-76
2021/04/06 08:38:21;;;;;;;11.20;1.57;;;;;;;;;;5040262;28;37401;-74
2021/04/06 08:40:48;;;;;;;7.27;1.60;;;;;;;;;;5010661;28;37944;-75
2021/04/06 08:43:17;;;;;;;12.20;1.63;;;;;;;;;;5023750;28;36287;-74
2021/04/06 08:45:53;;;;;;;8.40;1.90;;;;;;;;;;5023893;28;40057;-76
2021/04/06 08:48:38;;;;;;;10.20;1.47;;;;;;;;;;5028041;28;38215;-80
2021/04/06 08:51:20;;;;;;;4.20;1.00;;;;;;;;;;5047805;28;37019;-75
2021/04/06 08:53:47;;;;;;;6.93;1.07;;;;;;;;;;5024887;28;37647;-75
2021/04/06 08:56:14;;;;;;;7.67;1.10;;;;;;;;;;5025248;28;40254;-75
2021/04/06 08:58:41;;;;;;;6.17;1.20;;;;;;;;;;5041735;28;37451;-77
2021/04/06 09:01:07;;;;;;;5.20;0.93;;;;;;;;;;5059057;28;37315;-75
2021/04/06 09:03:34;;;;;;;6.03;1.23;;;;;;;;;;5040447;28;35839;-75
2021/04/06 09:06:08;;;;;;;6.27;1.17;;;;;;;;;;5038218;28;39411;-75
2021/04/06 09:08:48;;;;;;;6.63;1.03;;;;;;;;;;5008837;28;49665;-77
2021/04/06 09:11:15;;;;;;;5.47;1.57;;;;;;;;;;5004914;28;38193;-78
2021/04/06 09:13:42;;;;;;;11.50;2.13;;;;;;;;;;5020471;28;36016;-79
2021/04/06 09:16:09;;;;;;;8.27;1.80;;;;;;;;;;5040033;28;38913;-78
2021/04/06 09:18:36;;;;;;;10.47;1.47;;;;;;;;;;5003731;28;39067;-80
2021/04/06 09:21:06;;;;;;;14.63;2.00;;;;;;;;;;5003304;28;38111;-79
2021/04/06 09:23:33;;;;;;;14.23;2.63;;;;;;;;;;5040700;28;48506;-80
2021/04/06 09:25:59;;;;;;;11.60;1.93;;;;;;;;;;5032199;28;38979;-79
2021/04/06 09:28:26;;;;;;;16.83;2.00;;;;;;;;;;5005829;28;39224;-78
2021/04/06 09:30:52;;;;;;;11.13;1.73;;;;;;;;;;5043201;28;38000;-79
2021/04/06 09:33:20;;;;;;;6.93;1.87;;;;;;;;;;5030002;28;35696;-79
2021/04/06 09:35:51;;;;;;;5.77;1.70;;;;;;;;;;5053034;28;38087;-79
2021/04/06 09:38:21;;;;;;;13.43;2.20;;;;;;;;;;5033789;28;37617;-79
2021/04/06 09:40:47;;;;;;;15.00;2.57;;;;;;;;;;5051479;28;36754;-79
2021/04/06 09:43:13;;;;;;;6.87;2.23;;;;;;;;;;5029837;28;36486;-79
2021/04/06 09:45:40;;;;;;;10.33;2.33;;;;;;;;;;5029099;28;39492;-76
2021/04/06 09:48:07;;;;;;;7.80;2.73;;;;;;;;;;5048901;28;38521;-76
2021/04/06 09:50:33;;;;;;;4.33;1.70;;;;;;;;;;5037633;28;37327;-76
2021/04/06 09:53:00;;;;;;;4.73;1.50;;;;;;;;;;5053300;28;36278;-76
2021/04/06 09:55:29;;;;;;;5.37;1.50;;;;;;;;;;5032250;28;38880;-76
2021/04/06 09:57:59;;;;;;;7.77;1.37;;;;;;;;;;5036786;28;37833;-76
2021/04/06 10:00:27;;;;;;;13.03;2.10;;;;;;;;;;5050504;28;37593;-76
2021/04/06 10:03:02;;;;;;;9.07;2.90;;;;;;;;;;5024748;28;36356;-78
2021/04/06 10:05:29;;;;;;;12.07;3.60;;;;;;;;;;5024716;28;48849;-79
2021/04/06 10:07:55;;;;;;;8.77;3.13;;;;;;;;;;5030431;28;39145;-78
2021/04/06 10:10:31;;;;;;;4.47;1.00;;;;;;;;;;5029542;28;38617;-78
2021/04/06 10:12:59;;;;;;;6.33;0.80;;;;;;;;;;5024974;28;37070;-78
2021/04/06 10:15:26;;;;;;;5.03;1.07;;;;;;;;;;5028608;28;39640;-78
2021/04/06 10:17:54;;;;;;;6.97;1.10;;;;;;;;;;5023616;28;38262;-78
2021/04/06 10:20:24;;;;;;;9.17;1.20;;;;;;;;;;5050139;28;38439;-78
2021/04/06 10:22:56;;;;;;;9.60;1.40;;;;;;;;;;5052153;28;36348;-79
2021/04/06 10:25:23;;;;;;;14.70;1.70;;;;;;;;;;5030588;28;38340;-78
2021/04/06 10:27:51;;;;;;;19.83;2.43;;;;;;;;;;5052058;28;35850;-78
2021/04/06 10:30:26;;;;;;;12.63;1.77;;;;;;;;;;5029802;28;38764;-78
2021/04/06 10:33:02;;;;;;;13.47;1.70;;;;;;;;;;5050853;28;35978;-78
2021/04/06 10:35:30;;;;;;;7.47;1.57;;;;;;;;;;5011636;28;47332;-78
2021/04/06 10:37:58;;;;;;;9.53;1.60;;;;;;;;;;5011719;28;38858;-78
2021/04/06 10:40:26;;;;;;;7.37;1.20;;;;;;;;;;5025867;28;38210;-79
2021/04/06 10:42:54;;;;;;;11.47;3.33;;;;;;;;;;5057882;28;35692;-78
2021/04/06 10:45:21;;;;;;;11.67;2.03;;;;;;;;;;5048388;28;38586;-76
2021/04/06 10:48:02;;;;;;;7.37;1.80;;;;;;;;;;5050449;28;37646;-76
2021/04/06 10:50:30;;;;;;;5.40;1.50;;;;;;;;;;5037298;28;46297;-77
2021/04/06 10:52:56;;;;;;;7.90;1.57;;;;;;;;;;5031831;28;37611;-76
2021/04/06 10:55:33;;;;;;;5.60;1.17;;;;;;;;;;5033582;28;41687;-76
2021/04/06 10:57:59;;;;;;;6.87;1.30;;;;;;;;;;5009317;28;38106;-76
2021/04/06 11:00:27;;;;;;;7.57;1.43;;;;;;;;;;5012105;28;35830;-76
2021/04/06 11:03:10;;;;;;;6.10;1.33;;;;;;;;;;5035271;28;35733;-76
2021/04/06 11:05:38;;;;;;;4.40;1.10;;;;;;;;;;5033387;28;47191;-76
2021/04/06 11:08:20;;;;;;;4.93;0.97;;;;;;;;;;5011348;28;39531;-75
2021/04/06 11:10:47;;;;;;;3.80;1.00;;;;;;;;;;5011591;28;38140;-75
2021/04/06 11:13:13;;;;;;;6.03;1.53;;;;;;;;;;5054279;28;35787;-76
2021/04/06 11:15:41;;;;;;;4.10;1.40;;;;;;;;;;5033017;28;39027;-77
2021/04/06 11:18:08;;;;;;;7.47;1.30;;;;;;;;;;5029873;28;37549;-75
2021/04/06 11:20:34;;;;;;;11.30;1.43;;;;;;;;;;5004954;28;38387;-76
2021/04/06 11:23:01;;;;;;;7.90;1.50;;;;;;;;;;5006243;28;37118;-76
2021/04/06 11:25:27;;;;;;;6.00;1.20;;;;;;;;;;5003295;28;48960;-75
2021/04/06 11:27:58;;;;;;;4.80;1.07;;;;;;;;;;5055236;28;37108;-74
2021/04/06 11:30:35;;;;;;;6.20;1.00;;;;;;;;;;5057980;28;37553;-76
2021/04/06 11:33:04;;;;;;;7.93;1.27;;;;;;;;;;5034910;28;37148;-76
2021/04/06 11:35:30;;;;;;;5.60;1.60;;;;;;;;;;5005371;28;40190;-76
2021/04/06 11:37:57;;;;;;;6.33;1.83;;;;;;;;;;5033245;28;37572;-76
2021/04/06 11:40:25;;;;;;;6.27;1.10;;;;;;;;;;5039316;28;37348;-76
2021/04/06 11:42:51;;;;;;;8.20;1.10;;;;;;;;;;5037943;28;36404;-76
2021/04/06 11:45:21;;;;;;;6.67;1.70;;;;;;;;;;5038998;28;37934;-76
2021/04/06 11:47:49;;;;;;;10.90;1.70;;;;;;;;;;5007751;28;38726;-77
2021/04/06 11:50:15;;;;;;;11.07;1.50;;;;;;;;;;5040315;28;37261;-76
2021/04/06 11:52:41;;;;;;;10.40;1.30;;;;;;;;;;5037557;28;35584;-76
2021/04/06 11:55:08;;;;;;;13.40;2.23;;;;;;;;;;5008014;28;39659;-78
2021/04/06 11:57:35;;;;;;;8.03;1.37;;;;;;;;;;5019911;28;38199;-77
2021/04/06 12:00:01;;;;;;;6.13;1.03;;;;;;;;;;5026738;28;39041;-77
2021/04/06 12:02:27;;;;;;;8.20;1.40;;;;;;;;;;5017577;28;47442;-77
2021/04/06 12:04:54;;;;;;;9.53;1.40;;;;;;;;;;5029498;28;38733;-78
2021/04/06 12:07:20;;;;;;;6.47;1.13;;;;;;;;;;5023710;28;38672;-78
2021/04/06 12:09:47;;;;;;;10.13;1.80;;;;;;;;;;5062736;28;37128;-79
2021/04/06 12:12:13;;;;;;;8.40;1.50;;;;;;;;;;5059138;28;37478;-78
2021/04/06 12:14:40;;;;;;;9.90;1.80;;;;;;;;;;5024534;28;38645;-77
2021/04/06 12:17:06;;;;;;;8.77;1.80;;;;;;;;;;5052991;28;38534;-77
2021/04/06 12:19:33;;;;;;;9.40;1.53;;;;;;;;;;5023515;28;38370;-77
2021/04/06 12:21:59;;;;;;;7.73;1.90;;;;;;;;;;5023280;28;36845;-77
2021/04/06 12:24:25;;;;;;;11.13;2.10;;;;;;;;;;5028509;28;37610;-77
2021/04/06 12:26:55;;;;;;;20.07;1.90;;;;;;;;;;5054664;28;37370;-77
2021/04/06 12:29:21;;;;;;;11.93;1.47;;;;;;;;;;5039348;28;38485;-77
2021/04/06 12:31:48;;;;;;;5.77;1.00;;;;;;;;;;5057797;28;35780;-77
2021/04/06 12:34:14;;;;;;;9.20;1.20;;;;;;;;;;5021225;28;38924;-77
2021/04/06 12:36:41;;;;;;;5.17;1.00;;;;;;;;;;5025730;28;39421;-78
2021/04/06 12:39:07;;;;;;;4.27;0.63;;;;;;;;;;5044280;28;37816;-78
2021/04/06 12:41:33;;;;;;;4.10;0.63;;;;;;;;;;5042119;28;37605;-80
2021/04/06 12:44:00;;;;;;;3.80;0.90;;;;;;;;;;5007811;28;38688;-77
2021/04/06 12:46:26;;;;;;;3.93;0.70;;;;;;;;;;5016571;28;38199;-80
2021/04/06 12:48:52;;;;;;;3.83;1.07;;;;;;;;;;5040734;28;42207;-79
2021/04/06 12:51:19;;;;;;;3.73;0.80;;;;;;;;;;5023594;28;36999;-78
2021/04/06 12:53:45;;;;;;;5.33;1.00;;;;;;;;;;5040493;28;39835;-79
2021/04/06 12:56:11;;;;;;;8.13;1.20;;;;;;;;;;5059897;28;37126;-80
2021/04/06 12:58:38;;;;;;;7.23;1.07;;;;;;;;;;5059144;28;36891;-78
2021/04/06 13:01:04;;;;;;;8.70;1.30;;;;;;;;;;5057083;28;36870;-78
2021/04/06 13:03:30;;;;;;;10.13;1.40;;;;;;;;;;5025354;28;39959;-78
2021/04/06 13:05:57;;;;;;;7.53;1.27;;;;;;;;;;5027694;28;39407;-79
2021/04/06 13:08:23;;;;;;;11.07;1.97;;;;;;;;;;5056132;28;37320;-78
2021/04/06 13:10:52;;;;;;;9.07;1.90;;;;;;;;;;5056118;28;37920;-78
2021/04/06 13:13:19;;;;;;;10.43;2.57;;;;;;;;;;5025067;28;40202;-79
2021/04/06 13:15:46;;;;;;;10.70;1.70;;;;;;;;;;5021602;28;38387;-78
2021/04/06 13:18:12;;;;;;;6.57;1.40;;;;;;;;;;5060607;28;37482;-79
2021/04/06 13:20:39;;;;;;;10.77;2.13;;;;;;;;;;5065328;28;35821;-79
2021/04/06 13:23:06;;;;;;;5.67;1.13;;;;;;;;;;5058845;28;38908;-80
2021/04/06 13:25:33;;;;;;;7.53;1.47;;;;;;;;;;5028093;28;38879;-79
2021/04/06 13:27:59;;;;;;;8.73;1.47;;;;;;;;;;5060588;28;38240;-78
2021/04/06 13:30:26;;;;;;;10.97;1.60;;;;;;;;;;5029893;28;36801;-77
2021/04/06 13:32:53;;;;;;;12.40;1.13;;;;;;;;;;5027054;28;39702;-79
2021/04/06 13:35:20;;;;;;;10.23;1.53;;;;;;;;;;5038684;28;39982;-78
2021/04/06 13:37:46;;;;;;;13.17;1.90;;;;;;;;;;5031895;28;39734;-78
2021/04/06 13:40:14;;;;;;;12.37;1.80;;;;;;;;;;5027024;28;36726;-80
2021/04/06 13:42:41;;;;;;;19.30;1.70;;;;;;;;;;5029170;28;40254;-79
2021/04/06 13:45:34;;;;;;;9.73;1.60;;;;;;;;;;5024761;28;37534;-79
2021/04/06 13:48:01;;;;;;;11.55;2.05;;;;;;;;;;5005602;28;37439;-79
2021/04/06 13:50:28;;;;;;;11.80;2.10;;;;;;;;;;5040656;28;47431;-79
2021/04/06 13:52:54;;;;;;;6.93;1.17;;;;;;;;;;5015887;28;39641;-78
2021/04/06 13:55:21;;;;;;;8.13;1.30;;;;;;;;;;5004747;28;38807;-78
2021/04/06 13:57:47;;;;;;;7.60;0.97;;;;;;;;;;5008644;28;37908;-77
2021/04/06 14:00:15;;;;;;;6.80;1.00;;;;;;;;;;5035600;28;35682;-79
2021/04/06 14:02:41;;;;;;;10.33;1.30;;;;;;;;;;5040118;28;38829;-79
2021/04/06 14:05:09;;;;;;;4.83;0.93;;;;;;;;;;5011570;28;39283;-78
2021/04/06 14:07:35;;;;;;;8.40;1.03;;;;;;;;;;5034420;28;37434;-79
2021/04/06 14:10:05;;;;;;;11.13;1.40;;;;;;;;;;5041327;28;36267;-79
2021/04/06 14:12:31;;;;;;;5.13;1.63;;;;;;;;;;5045023;28;39977;-79
2021/04/06 14:14:58;;;;;;;17.97;2.03;;;;;;;;;;5023058;28;38599;-78
2021/04/06 14:17:24;;;;;;;10.07;2.73;;;;;;;;;;5028977;28;38116;-79
2021/04/06 14:19:51;;;;;;;12.80;2.40;;;;;;;;;;5038252;28;36559;-79
2021/04/06 14:22:17;;;;;;;12.10;2.40;;;;;;;;;;5028082;28;37863;-80
2021/04/06 14:24:43;;;;;;;14.37;2.07;;;;;;;;;;5042733;28;37808;-78
2021/04/06 14:27:10;;;;;;;9.40;1.90;;;;;;;;;;5042931;28;37267;-80
2021/04/06 14:29:36;;;;;;;15.20;2.17;;;;;;;;;;5049204;28;38229;-78
2021/04/06 14:32:02;;;;;;;11.43;1.90;;;;;;;;;;5034299;28;39232;-77
2021/04/06 14:34:29;;;;;;;7.83;1.43;;;;;;;;;;5005543;28;38578;-79
2021/04/06 14:36:55;;;;;;;5.43;1.17;;;;;;;;;;5008745;28;38172;-77
2021/04/06 14:39:22;;;;;;;13.43;1.93;;;;;;;;;;5014603;28;36872;-78
2021/04/06 14:41:49;;;;;;;10.73;1.57;;;;;;;;;;5002900;28;38837;-79
2021/04/06 14:44:22;;;;;;;12.70;1.73;;;;;;;;;;5026498;28;37612;-78